createdAt,value
2022-08-02T00:01:25.114Z,48.17
2022-08-02T00:06:28.056Z,48.20
2022-08-02T00:11:30.850Z,48.62
2022-08-02T00:16:37.979Z,47.72
2022-08-02T00:21:41.378Z,48.42
2022-08-02T00:26:44.190Z,49.48
2022-08-02T00:31:48.389Z,49.28
2022-08-02T00:36:52.047Z,49.54
2022-08-02T00:41:55.060Z,49.37
2022-08-02T00:46:59.256Z,49.05
2022-08-02T00:52:02.331Z,49.44
2022-08-02T00:57:05.215Z,49.85
2022-08-02T01:02:10.202Z,50.59
2022-08-02T01:07:14.438Z,49.70
2022-08-02T01:12:17.733Z,49.91
2022-08-02T01:17:31.411Z,50.03
2022-08-02T01:23:01.682Z,49.30
2022-08-02T01:28:29.485Z,49.57
2022-08-02T01:33:40.526Z,50.00
2022-08-02T01:38:47.424Z,50.77
2022-08-02T01:43:54.949Z,51.59
2022-08-02T01:49:00.641Z,51.67
2022-08-02T01:54:04.016Z,52.25
2022-08-02T01:59:12.064Z,52.29
2022-08-02T02:04:16.990Z,51.69
2022-08-02T02:09:21.661Z,52.30
2022-08-02T02:14:26.284Z,52.41
2022-08-02T02:19:30.231Z,52.46
2022-08-02T02:24:33.319Z,52.23
2022-08-02T02:29:44.428Z,53.20
2022-08-02T02:34:52.154Z,53.09
2022-08-02T02:39:58.035Z,53.38
2022-08-02T02:45:04.251Z,54.14
2022-08-02T02:50:08.454Z,54.55
2022-08-02T02:55:12.170Z,54.51
2022-08-02T03:00:16.649Z,55.23
2022-08-02T03:05:19.478Z,55.44
2022-08-02T03:10:22.487Z,56.25
2022-08-02T03:15:28.649Z,57.21
2022-08-02T03:20:31.478Z,56.72
2022-08-02T03:25:34.534Z,56.81
2022-08-02T03:30:38.713Z,57.04
2022-08-02T03:35:43.902Z,56.24
2022-08-02T03:40:47.654Z,56.81
2022-08-02T03:45:52.995Z,57.31
2022-08-02T03:50:57.238Z,57.37
2022-08-02T03:56:00.526Z,57.63
2022-08-02T04:01:05.021Z,56.87
2022-08-02T04:06:07.935Z,56.83
2022-08-02T04:11:28.519Z,57.03
2022-08-02T04:16:42.196Z,57.55
2022-08-02T04:21:49.965Z,57.38
2022-08-02T04:26:57.861Z,57.70
2022-08-02T04:32:08.934Z,58.37
2022-08-02T04:37:14.089Z,58.65
2022-08-02T04:42:22.018Z,58.64
2022-08-02T04:48:01.491Z,58.52
2022-08-02T04:52:49.395Z,58.41
2022-08-02T04:57:58.186Z,58.58
2022-08-02T05:03:02.827Z,58.97
2022-08-02T05:08:06.064Z,58.99
2022-08-02T05:13:08.845Z,58.72
2022-08-02T05:18:13.016Z,59.25
2022-08-02T05:23:16.140Z,59.23
2022-08-02T05:28:19.092Z,58.71
2022-08-02T05:33:25.084Z,59.55
2022-08-02T05:38:31.117Z,59.30
2022-08-02T05:43:34.761Z,58.15
2022-08-02T05:48:38.946Z,57.36
2022-08-02T05:53:47.673Z,57.41
2022-08-02T05:58:54.215Z,57.06
2022-08-02T06:04:01.251Z,58.68
2022-08-02T06:09:06.762Z,56.70
2022-08-02T06:14:09.709Z,56.82
2022-08-02T06:19:14.452Z,56.18
2022-08-02T06:24:19.707Z,57.48
2022-08-02T06:29:23.262Z,56.82
2022-08-02T06:34:27.639Z,56.19
2022-08-02T06:39:36.913Z,56.48
2022-08-02T06:44:48.101Z,55.27
2022-08-02T06:49:56.368Z,54.93
2022-08-02T06:55:00.547Z,55.83
2022-08-02T07:00:09.195Z,55.50
2022-08-02T07:05:13.506Z,54.95
2022-08-02T07:10:16.396Z,54.78
2022-08-02T07:15:19.298Z,54.84
2022-08-02T07:20:23.544Z,55.49
2022-08-02T07:25:26.420Z,54.96
2022-08-02T07:30:49.189Z,54.37
2022-08-02T07:35:53.894Z,54.14
2022-08-02T07:40:57.578Z,54.53
2022-08-02T07:46:00.676Z,54.10
2022-08-02T07:51:05.422Z,53.75
2022-08-02T07:56:08.195Z,53.93
2022-08-02T08:01:11.171Z,53.77
2022-08-02T08:06:15.949Z,53.21
2022-08-02T08:11:19.161Z,52.86
2022-08-02T08:16:22.183Z,52.48
2022-08-02T08:21:26.378Z,52.46
2022-08-02T08:26:29.074Z,52.17
2022-08-02T08:31:31.897Z,51.59
2022-08-02T08:36:36.094Z,50.98
2022-08-02T08:41:38.667Z,50.89
2022-08-02T08:46:44.014Z,50.35
2022-08-02T08:51:48.224Z,50.07
2022-08-02T08:56:52.675Z,50.08
2022-08-02T09:01:56.982Z,49.71
2022-08-02T09:07:01.203Z,48.81
2022-08-02T09:12:15.357Z,48.95
2022-08-02T09:17:21.412Z,48.55
2022-08-02T09:22:26.150Z,48.40
2022-08-02T09:27:36.541Z,47.60
2022-08-02T09:32:46.499Z,47.41
2022-08-02T09:37:50.751Z,46.88
2022-08-02T09:42:59.903Z,46.93
2022-08-02T09:48:03.378Z,46.35
2022-08-02T09:53:12.885Z,46.80
2022-08-02T09:58:19.735Z,46.20
2022-08-02T10:03:24.499Z,46.19
2022-08-02T10:08:36.197Z,46.36
2022-08-02T10:13:39.285Z,45.61
2022-08-02T10:18:42.346Z,45.53
2022-08-02T10:23:49.930Z,45.57
2022-08-02T10:28:54.975Z,44.76
2022-08-02T10:34:01.127Z,45.05
2022-08-02T10:39:06.297Z,44.48
2022-08-02T10:44:24.893Z,43.93
2022-08-02T10:49:39.685Z,44.18
2022-08-02T10:54:49.018Z,43.26
2022-08-02T10:59:53.811Z,43.09
2022-08-02T11:05:06.562Z,42.89
2022-08-02T11:10:31.126Z,43.44
2022-08-02T11:15:50.562Z,42.47
2022-08-02T11:21:24.703Z,41.70
2022-08-02T11:26:47.069Z,42.21
2022-08-02T11:31:49.950Z,41.26
2022-08-02T11:36:54.174Z,40.77
2022-08-02T11:42:00.394Z,40.37
2022-08-02T11:47:04.545Z,40.07
2022-08-02T11:52:11.074Z,40.17
2022-08-02T11:57:20.304Z,39.83
2022-08-02T12:02:27.082Z,38.92
2022-08-02T12:07:35.323Z,38.67
2022-08-02T12:12:50.642Z,38.41
2022-08-02T12:18:12.001Z,38.20
2022-08-02T12:23:15.302Z,38.40
2022-08-02T12:28:22.457Z,38.45
2022-08-02T12:33:28.983Z,37.59
2022-08-02T12:38:31.809Z,37.73
2022-08-02T12:43:44.528Z,37.30
2022-08-02T12:49:02.655Z,37.38
2022-08-02T12:54:17.688Z,36.58
2022-08-02T12:59:38.903Z,35.89
2022-08-02T13:04:50.272Z,35.73
2022-08-02T13:10:00.392Z,35.66
2022-08-02T13:15:12.671Z,35.28
2022-08-02T13:20:31.924Z,35.51
2022-08-02T13:25:34.784Z,35.36
2022-08-02T13:30:39.593Z,35.29
2022-08-02T13:35:43.172Z,34.92
2022-08-02T13:41:04.622Z,34.12
2022-08-02T13:46:09.252Z,34.10
2022-08-02T13:51:14.872Z,33.84
2022-08-02T13:56:17.843Z,33.27
2022-08-02T14:01:22.097Z,32.98
2022-08-02T14:06:25.355Z,32.46
2022-08-02T14:11:28.158Z,32.29
2022-08-02T14:16:33.203Z,31.94
2022-08-02T14:21:46.445Z,31.65
2022-08-02T14:26:51.305Z,31.05
2022-08-02T14:31:55.525Z,28.98
2022-08-02T14:36:58.424Z,27.83
2022-08-02T14:42:01.276Z,27.05
2022-08-02T14:47:05.986Z,25.47
2022-08-02T14:52:08.857Z,24.39
2022-08-02T14:57:12.239Z,24.01
2022-08-02T15:02:16.683Z,23.57
2022-08-02T15:07:19.814Z,22.67
2022-08-02T15:12:22.637Z,22.69
2022-08-02T15:17:26.868Z,21.69
2022-08-02T15:22:29.735Z,21.82
2022-08-02T15:27:33.909Z,21.00
2022-08-02T15:32:41.631Z,21.32
2022-08-02T15:37:56.605Z,20.77
2022-08-02T15:42:59.827Z,20.01
2022-08-02T15:48:04.214Z,20.09
2022-08-02T15:53:07.097Z,20.05
2022-08-02T15:58:16.818Z,20.36
2022-08-02T16:03:22.399Z,20.40
2022-08-02T16:08:26.447Z,20.15
2022-08-02T16:13:52.971Z,20.61
2022-08-02T16:18:58.838Z,19.89
2022-08-02T16:24:03.367Z,19.73
2022-08-02T16:29:06.422Z,19.51
2022-08-02T16:34:10.623Z,19.65
2022-08-02T16:39:13.550Z,19.92
2022-08-02T16:50:04.902Z,19.87
2022-08-02T16:55:09.982Z,18.97
2022-08-02T17:00:15.688Z,19.65
2022-08-02T17:05:21.170Z,19.17
2022-08-02T17:10:24.055Z,18.56
2022-08-02T17:16:01.122Z,18.62
2022-08-02T17:20:51.153Z,18.92
2022-08-02T17:25:54.003Z,18.93
2022-08-02T17:30:58.686Z,19.00
2022-08-02T17:36:02.958Z,19.99
2022-08-02T17:41:06.239Z,19.31
2022-08-02T17:46:17.971Z,19.82
2022-08-02T17:51:33.266Z,20.73
2022-08-02T17:56:45.540Z,20.28
2022-08-02T18:01:52.965Z,21.14
2022-08-02T18:07:03.880Z,22.74
2022-08-02T18:12:07.436Z,23.83
2022-08-02T18:17:10.214Z,25.43
2022-08-02T18:22:15.094Z,26.13
2022-08-02T18:27:18.502Z,25.97
2022-08-02T18:32:37.809Z,26.67
2022-08-02T18:37:56.706Z,26.41
2022-08-02T18:42:59.915Z,27.19
2022-08-02T18:48:07.821Z,26.99
2022-08-02T18:53:12.086Z,27.31
2022-08-02T18:58:20.240Z,28.01
2022-08-02T19:03:23.914Z,28.44
2022-08-02T19:08:27.939Z,28.31
2022-08-02T19:13:30.594Z,28.00
2022-08-02T19:18:33.387Z,29.10
2022-08-02T19:23:54.590Z,29.94
2022-08-02T19:28:57.739Z,30.30
2022-08-02T19:34:06.063Z,30.79
2022-08-02T19:39:16.898Z,31.23
2022-08-02T19:44:27.115Z,30.76
2022-08-02T19:49:39.984Z,30.94
2022-08-02T19:54:55.847Z,31.22
2022-08-02T20:00:00.162Z,31.72
2022-08-02T20:05:08.307Z,32.11
2022-08-02T20:10:24.621Z,32.43
2022-08-02T20:15:55.764Z,32.81
2022-08-02T20:20:51.429Z,33.51
2022-08-02T20:25:55.962Z,33.54
2022-08-02T20:30:58.908Z,34.44
2022-08-02T20:36:12.060Z,35.31
2022-08-02T20:41:21.440Z,34.89
2022-08-02T20:46:24.787Z,34.95
2022-08-02T20:51:33.421Z,34.70
2022-08-02T20:56:38.599Z,34.83
2022-08-02T21:01:41.705Z,34.65
2022-08-02T21:07:00.437Z,34.82
2022-08-02T21:12:05.150Z,35.46
2022-08-02T21:17:08.737Z,36.11
2022-08-02T21:22:12.534Z,36.11
2022-08-02T21:27:52.706Z,35.91
2022-08-02T21:32:39.417Z,35.54
2022-08-02T21:37:44.743Z,36.62
2022-08-02T21:42:49.339Z,36.77
2022-08-02T21:47:52.141Z,37.86
2022-08-02T21:52:54.961Z,38.19
2022-08-02T21:57:59.154Z,38.23
2022-08-02T22:03:22.287Z,38.49
2022-08-02T22:08:24.965Z,38.79
2022-08-02T22:13:38.697Z,38.99
2022-08-02T22:18:52.635Z,38.30
2022-08-02T22:23:55.620Z,38.78
2022-08-02T22:29:00.202Z,39.01
2022-08-02T22:39:33.548Z,39.79
2022-08-02T22:44:37.733Z,40.51
2022-08-02T22:49:51.955Z,39.96
2022-08-02T22:54:58.766Z,41.00
2022-08-02T22:58:48.779Z,19.88
2022-08-02T23:00:07.132Z,40.89
2022-08-02T23:05:10.399Z,41.11
2022-08-02T23:10:13.323Z,40.92
2022-08-02T23:15:17.546Z,41.31
2022-08-02T23:20:20.152Z,41.12
2022-08-02T23:25:23.111Z,42.33
2022-08-02T23:30:28.318Z,41.47
2022-08-02T23:35:31.302Z,41.39
2022-08-02T23:40:40.375Z,43.12
2022-08-02T23:45:47.515Z,44.16
2022-08-02T23:50:50.403Z,43.72
2022-08-02T23:55:53.300Z,44.79
